Terminal Aerodrome Forecast
Issued by NWS Columbia, SC

Current Version | Previous Version | Text Only | Print | Product List | Glossary On
Versions: 1 2 3 4 5 6 7 8 9 10 11 12 13 14 15 16 17 18 19 20 21 22 23 24 25 26 27 28 29 30 31 32 33 34 35 36 37 38 39 40 41 42 43 44 45
000
FTUS42 KCAE 252000 AAC
TAFAGS
TAF AMD
KAGS 252047Z 2521/2618 24010KT P6SM SCT010 BKN025 WS020/24035KT
     FM261400 28012G22KT P6SM SCT020 BKN035=

USA.gov is the U.S. government's official web portal to all federal, state and local government web resources and services.